createdAt,value
2019-06-26T00:00:51.000Z,4.55
2019-06-26T00:03:51.000Z,4.55
2019-06-26T00:06:51.000Z,4.55
2019-06-26T00:09:51.000Z,4.55
2019-06-26T00:12:51.000Z,4.55
2019-06-26T00:15:51.000Z,4.55
2019-06-26T00:18:51.000Z,4.55
2019-06-26T00:21:51.000Z,4.55
2019-06-26T00:24:51.000Z,4.55
2019-06-26T00:27:51.000Z,4.55
2019-06-26T00:30:51.000Z,4.55
2019-06-26T00:33:51.000Z,4.55
2019-06-26T00:36:51.000Z,4.55
2019-06-26T00:39:52.000Z,4.55
2019-06-26T00:42:51.000Z,4.55
2019-06-26T00:45:52.000Z,4.55
2019-06-26T00:48:51.000Z,4.55
2019-06-26T00:51:51.000Z,4.55
2019-06-26T00:54:51.000Z,4.55
2019-06-26T00:57:51.000Z,4.55
2019-06-26T01:00:51.000Z,4.57
2019-06-26T01:03:51.000Z,4.57
2019-06-26T01:06:52.000Z,4.57
2019-06-26T01:09:51.000Z,4.57
2019-06-26T01:12:51.000Z,4.57
2019-06-26T01:15:51.000Z,4.57
2019-06-26T01:18:51.000Z,4.57
2019-06-26T01:21:51.000Z,4.57
2019-06-26T01:24:51.000Z,4.57
2019-06-26T01:27:52.000Z,4.57
2019-06-26T01:30:52.000Z,4.57
2019-06-26T01:33:51.000Z,4.57
2019-06-26T01:36:51.000Z,4.57
2019-06-26T01:39:51.000Z,4.57
2019-06-26T01:42:51.000Z,4.57
2019-06-26T01:45:51.000Z,4.57
2019-06-26T01:48:51.000Z,4.57
2019-06-26T01:51:51.000Z,4.57
2019-06-26T01:54:51.000Z,4.57
2019-06-26T01:57:51.000Z,4.57
2019-06-26T02:00:51.000Z,4.59
2019-06-26T02:03:51.000Z,4.59
2019-06-26T02:06:51.000Z,4.59
2019-06-26T02:09:51.000Z,4.59
2019-06-26T02:12:51.000Z,4.59
2019-06-26T02:15:51.000Z,4.59
2019-06-26T02:18:51.000Z,4.59
2019-06-26T02:21:51.000Z,4.59
2019-06-26T02:24:51.000Z,4.59
2019-06-26T02:27:51.000Z,4.59
2019-06-26T02:30:51.000Z,4.59
2019-06-26T02:33:51.000Z,4.59
2019-06-26T02:36:51.000Z,4.59
2019-06-26T02:39:51.000Z,4.59
2019-06-26T02:42:51.000Z,4.59
2019-06-26T02:45:51.000Z,4.59
2019-06-26T02:48:51.000Z,4.59
2019-06-26T02:51:51.000Z,4.59
2019-06-26T02:54:51.000Z,4.59
2019-06-26T02:57:51.000Z,4.59
2019-06-26T03:00:51.000Z,4.60
2019-06-26T03:03:51.000Z,4.60
2019-06-26T03:06:51.000Z,4.60
2019-06-26T03:09:51.000Z,4.60
2019-06-26T03:12:51.000Z,4.60
2019-06-26T03:15:51.000Z,4.60
2019-06-26T03:18:51.000Z,4.60
2019-06-26T03:21:51.000Z,4.60
2019-06-26T03:24:51.000Z,4.60
2019-06-26T03:27:51.000Z,4.60
2019-06-26T03:30:51.000Z,4.60
2019-06-26T03:33:51.000Z,4.60
2019-06-26T03:36:51.000Z,4.60
2019-06-26T03:39:51.000Z,4.60
2019-06-26T03:42:51.000Z,4.60
2019-06-26T03:45:51.000Z,4.60
2019-06-26T03:48:51.000Z,4.60
2019-06-26T03:51:51.000Z,4.60
2019-06-26T03:54:51.000Z,4.60
2019-06-26T03:57:51.000Z,4.60
2019-06-26T04:00:51.000Z,4.61
2019-06-26T04:03:51.000Z,4.61
2019-06-26T04:06:51.000Z,4.61
2019-06-26T04:09:51.000Z,4.61
2019-06-26T04:12:51.000Z,4.61
2019-06-26T04:15:51.000Z,4.61
2019-06-26T04:18:51.000Z,4.61
2019-06-26T04:21:51.000Z,4.61
2019-06-26T04:24:51.000Z,4.61
2019-06-26T04:27:51.000Z,4.61
2019-06-26T04:30:51.000Z,4.61
2019-06-26T04:33:51.000Z,4.61
2019-06-26T04:36:51.000Z,4.61
2019-06-26T04:39:51.000Z,4.61
2019-06-26T04:42:51.000Z,4.61
2019-06-26T04:45:51.000Z,4.61
2019-06-26T04:48:51.000Z,4.61
2019-06-26T04:51:51.000Z,4.61
2019-06-26T04:54:51.000Z,4.61
2019-06-26T04:57:51.000Z,4.61
2019-06-26T05:00:51.000Z,4.74
2019-06-26T05:03:51.000Z,4.74
2019-06-26T05:06:51.000Z,4.74
2019-06-26T05:09:51.000Z,4.74
2019-06-26T05:12:52.000Z,4.74
2019-06-26T05:15:52.000Z,4.74
2019-06-26T05:18:52.000Z,4.74
2019-06-26T05:21:52.000Z,4.74
2019-06-26T05:24:52.000Z,4.74
2019-06-26T05:27:52.000Z,4.74
2019-06-26T05:30:52.000Z,4.74
2019-06-26T05:33:51.000Z,4.74
2019-06-26T05:36:52.000Z,4.74
2019-06-26T05:39:51.000Z,4.74
2019-06-26T05:42:51.000Z,4.74
2019-06-26T05:45:51.000Z,4.74
2019-06-26T05:48:51.000Z,4.74
2019-06-26T05:51:51.000Z,4.74
2019-06-26T05:54:51.000Z,4.74
2019-06-26T05:57:51.000Z,4.74
2019-06-26T06:00:51.000Z,4.82
2019-06-26T06:03:51.000Z,4.82
2019-06-26T06:06:51.000Z,4.82
2019-06-26T06:09:51.000Z,4.82
2019-06-26T06:12:51.000Z,4.82
2019-06-26T06:15:52.000Z,4.82
2019-06-26T06:18:51.000Z,4.82
2019-06-26T06:21:51.000Z,4.82
2019-06-26T06:24:52.000Z,4.82
2019-06-26T06:27:52.000Z,4.82
2019-06-26T06:30:52.000Z,4.82
2019-06-26T06:33:51.000Z,4.82
2019-06-26T06:36:51.000Z,4.82
2019-06-26T06:39:52.000Z,4.82
2019-06-26T06:42:52.000Z,4.82
2019-06-26T06:45:52.000Z,4.82
2019-06-26T06:48:52.000Z,4.82
2019-06-26T06:51:52.000Z,4.82
2019-06-26T06:54:52.000Z,4.82
2019-06-26T06:57:52.000Z,4.82
2019-06-26T07:00:52.000Z,4.91
2019-06-26T07:03:52.000Z,4.91
2019-06-26T07:06:52.000Z,4.91
2019-06-26T07:09:52.000Z,4.91
2019-06-26T07:12:51.000Z,4.91
2019-06-26T07:15:51.000Z,4.91
2019-06-26T07:18:51.000Z,4.91
2019-06-26T07:21:51.000Z,4.91
2019-06-26T07:24:51.000Z,4.91
2019-06-26T07:27:52.000Z,4.91
2019-06-26T07:30:52.000Z,4.91
2019-06-26T07:33:51.000Z,4.91
2019-06-26T07:36:51.000Z,4.91
2019-06-26T07:39:51.000Z,4.91
2019-06-26T07:42:52.000Z,4.91
2019-06-26T07:45:51.000Z,4.91
2019-06-26T07:48:51.000Z,4.91
2019-06-26T07:51:52.000Z,4.91
2019-06-26T07:54:51.000Z,4.91
2019-06-26T07:57:51.000Z,4.91
2019-06-26T08:00:51.000Z,5.05
2019-06-26T08:03:51.000Z,5.05
2019-06-26T08:06:52.000Z,5.05
2019-06-26T08:09:51.000Z,5.05
2019-06-26T08:12:51.000Z,5.05
2019-06-26T08:15:52.000Z,5.05
2019-06-26T08:18:52.000Z,5.05
2019-06-26T08:21:52.000Z,5.05
2019-06-26T08:24:51.000Z,5.05
2019-06-26T08:27:51.000Z,5.05
2019-06-26T08:30:51.000Z,5.05
2019-06-26T08:33:51.000Z,5.05
2019-06-26T08:36:51.000Z,5.05
2019-06-26T08:39:51.000Z,5.05
2019-06-26T08:42:51.000Z,5.05
2019-06-26T08:45:51.000Z,5.05
2019-06-26T08:48:51.000Z,5.05
2019-06-26T08:51:51.000Z,5.05
2019-06-26T08:54:51.000Z,5.05
2019-06-26T08:57:51.000Z,5.05
2019-06-26T09:00:51.000Z,5.19
2019-06-26T09:03:51.000Z,5.19
2019-06-26T09:06:51.000Z,5.19
2019-06-26T09:09:51.000Z,5.19
2019-06-26T09:12:52.000Z,5.19
2019-06-26T09:15:51.000Z,5.19
2019-06-26T09:18:52.000Z,5.19
2019-06-26T09:21:52.000Z,5.19
2019-06-26T09:24:52.000Z,5.19
2019-06-26T09:27:51.000Z,5.19
2019-06-26T09:30:51.000Z,5.19
2019-06-26T09:33:51.000Z,5.19
2019-06-26T09:36:51.000Z,5.19
2019-06-26T09:39:52.000Z,5.19
2019-06-26T09:42:51.000Z,5.19
2019-06-26T09:45:51.000Z,5.19
2019-06-26T09:48:51.000Z,5.19
2019-06-26T09:51:51.000Z,5.19
2019-06-26T09:54:51.000Z,5.19
2019-06-26T09:57:51.000Z,5.19
2019-06-26T10:00:52.000Z,5.12
2019-06-26T10:03:51.000Z,5.12
2019-06-26T10:06:52.000Z,5.12
2019-06-26T10:09:51.000Z,5.12
2019-06-26T10:12:51.000Z,5.12
2019-06-26T10:15:51.000Z,5.12
2019-06-26T10:18:51.000Z,5.12
2019-06-26T10:21:51.000Z,5.12
2019-06-26T10:24:51.000Z,5.12
2019-06-26T10:27:51.000Z,5.12
2019-06-26T10:30:51.000Z,5.12
2019-06-26T10:33:51.000Z,5.12
2019-06-26T10:36:51.000Z,5.12
2019-06-26T10:39:51.000Z,5.12
2019-06-26T10:42:51.000Z,5.12
2019-06-26T10:45:51.000Z,5.12
2019-06-26T10:48:51.000Z,5.12
2019-06-26T10:51:51.000Z,5.12
2019-06-26T10:54:51.000Z,5.12
2019-06-26T10:57:51.000Z,5.12
2019-06-26T11:00:51.000Z,4.96
2019-06-26T11:03:51.000Z,4.96
2019-06-26T11:06:51.000Z,4.96
2019-06-26T11:09:51.000Z,4.96
2019-06-26T11:12:51.000Z,4.96
2019-06-26T11:15:51.000Z,4.96
2019-06-26T11:18:51.000Z,4.96
2019-06-26T11:21:51.000Z,4.96
2019-06-26T11:24:52.000Z,4.96
2019-06-26T11:27:51.000Z,4.96
2019-06-26T11:30:52.000Z,4.96
2019-06-26T11:33:51.000Z,4.96
2019-06-26T11:36:51.000Z,4.96
2019-06-26T11:39:51.000Z,4.96
2019-06-26T11:42:51.000Z,4.96
2019-06-26T11:45:51.000Z,4.96
2019-06-26T11:48:51.000Z,4.96
2019-06-26T11:51:51.000Z,4.96
2019-06-26T11:54:51.000Z,4.96
2019-06-26T11:57:52.000Z,4.96
2019-06-26T12:00:51.000Z,4.87
2019-06-26T12:03:51.000Z,4.87
2019-06-26T12:06:51.000Z,4.87
2019-06-26T12:09:51.000Z,4.87
2019-06-26T12:12:51.000Z,4.87
2019-06-26T12:15:51.000Z,4.87
2019-06-26T12:18:51.000Z,4.87
2019-06-26T12:21:51.000Z,4.87
2019-06-26T12:24:53.000Z,4.87
2019-06-26T12:27:52.000Z,4.87
2019-06-26T12:30:52.000Z,4.87
2019-06-26T12:33:52.000Z,4.87
2019-06-26T12:36:52.000Z,4.87
2019-06-26T12:39:51.000Z,4.87
2019-06-26T12:42:52.000Z,4.87
2019-06-26T12:45:52.000Z,4.87
2019-06-26T12:48:51.000Z,4.87
2019-06-26T12:51:52.000Z,4.87
2019-06-26T12:54:51.000Z,4.87
2019-06-26T12:57:51.000Z,4.87
2019-06-26T13:00:52.000Z,4.82
2019-06-26T13:03:52.000Z,4.82
2019-06-26T13:06:52.000Z,4.82
2019-06-26T13:09:52.000Z,4.82
2019-06-26T13:12:52.000Z,4.82
2019-06-26T13:15:51.000Z,4.82
2019-06-26T13:18:51.000Z,4.82
2019-06-26T13:21:51.000Z,4.82
2019-06-26T13:24:51.000Z,4.82
2019-06-26T13:27:51.000Z,4.82
2019-06-26T13:30:51.000Z,4.82
2019-06-26T13:33:51.000Z,4.82
2019-06-26T13:36:51.000Z,4.82
2019-06-26T13:39:51.000Z,4.82
2019-06-26T13:42:52.000Z,4.82
2019-06-26T13:45:52.000Z,4.82
2019-06-26T13:48:51.000Z,4.82
2019-06-26T13:51:52.000Z,4.82
2019-06-26T13:54:52.000Z,4.82
2019-06-26T13:57:52.000Z,4.82
2019-06-26T14:00:52.000Z,4.75
2019-06-26T14:03:52.000Z,4.75
2019-06-26T14:06:52.000Z,4.75
2019-06-26T14:09:52.000Z,4.75
2019-06-26T14:12:52.000Z,4.75
2019-06-26T14:15:52.000Z,4.75
2019-06-26T14:18:51.000Z,4.75
2019-06-26T14:21:59.000Z,4.75
2019-06-26T14:24:52.000Z,4.75
2019-06-26T14:27:52.000Z,4.75
2019-06-26T14:30:52.000Z,4.75
2019-06-26T14:33:52.000Z,4.75
2019-06-26T14:36:51.000Z,4.75
2019-06-26T14:39:51.000Z,4.75
2019-06-26T14:42:51.000Z,4.75
2019-06-26T14:45:52.000Z,4.75
2019-06-26T14:48:51.000Z,4.75
2019-06-26T14:51:52.000Z,4.75
2019-06-26T14:54:51.000Z,4.75
2019-06-26T14:57:52.000Z,4.75
2019-06-26T15:00:52.000Z,4.80
2019-06-26T15:03:51.000Z,4.80
2019-06-26T15:06:51.000Z,4.80
2019-06-26T15:09:51.000Z,4.80
2019-06-26T15:12:52.000Z,4.80
2019-06-26T15:15:51.000Z,4.80
2019-06-26T15:18:51.000Z,4.80
2019-06-26T15:21:52.000Z,4.80
2019-06-26T15:24:51.000Z,4.80
2019-06-26T15:27:51.000Z,4.80
2019-06-26T15:30:51.000Z,4.80
2019-06-26T15:33:52.000Z,4.80
2019-06-26T15:36:51.000Z,4.80
2019-06-26T15:39:51.000Z,4.80
2019-06-26T15:42:51.000Z,4.80
2019-06-26T15:45:51.000Z,4.80
2019-06-26T15:48:51.000Z,4.80
2019-06-26T15:51:52.000Z,4.80
2019-06-26T15:54:51.000Z,4.80
2019-06-26T15:57:51.000Z,4.80
2019-06-26T16:00:51.000Z,4.90
2019-06-26T16:03:51.000Z,4.90
2019-06-26T16:06:51.000Z,4.90
2019-06-26T16:09:51.000Z,4.90
2019-06-26T16:12:51.000Z,4.90
2019-06-26T16:15:51.000Z,4.90
2019-06-26T16:18:51.000Z,4.90
2019-06-26T16:21:51.000Z,4.90
2019-06-26T16:24:51.000Z,4.90
2019-06-26T16:27:51.000Z,4.90
2019-06-26T16:30:51.000Z,4.90
2019-06-26T16:33:51.000Z,4.90
2019-06-26T16:36:51.000Z,4.90
2019-06-26T16:39:51.000Z,4.90
2019-06-26T16:42:51.000Z,4.90
2019-06-26T16:45:52.000Z,4.90
2019-06-26T16:48:51.000Z,4.90
2019-06-26T16:51:52.000Z,4.90
2019-06-26T16:54:51.000Z,4.90
2019-06-26T16:57:52.000Z,4.90
2019-06-26T17:00:51.000Z,5.04
2019-06-26T17:03:51.000Z,5.04
2019-06-26T17:06:51.000Z,5.04
2019-06-26T17:09:51.000Z,5.04
2019-06-26T17:12:51.000Z,5.04
2019-06-26T17:15:51.000Z,5.04
2019-06-26T17:18:51.000Z,5.04
2019-06-26T17:21:51.000Z,5.04
2019-06-26T17:24:51.000Z,5.04
2019-06-26T17:27:51.000Z,5.04
2019-06-26T17:30:51.000Z,5.04
2019-06-26T17:33:51.000Z,5.04
2019-06-26T17:36:52.000Z,5.04
2019-06-26T17:39:51.000Z,5.04
2019-06-26T17:42:51.000Z,5.04
2019-06-26T17:45:51.000Z,5.04
2019-06-26T17:48:51.000Z,5.04
2019-06-26T17:51:51.000Z,5.04
2019-06-26T17:54:51.000Z,5.04
2019-06-26T17:57:51.000Z,5.04
2019-06-26T18:00:51.000Z,5.18
2019-06-26T18:03:51.000Z,5.18
2019-06-26T18:06:52.000Z,5.18
2019-06-26T18:09:52.000Z,5.18
2019-06-26T18:12:52.000Z,5.18
2019-06-26T18:15:51.000Z,5.18
2019-06-26T18:18:51.000Z,5.18
2019-06-26T18:21:51.000Z,5.18
2019-06-26T18:24:51.000Z,5.18
2019-06-26T18:27:51.000Z,5.18
2019-06-26T18:30:51.000Z,5.18
2019-06-26T18:33:51.000Z,5.18
2019-06-26T18:36:51.000Z,5.18
2019-06-26T18:39:51.000Z,5.18
2019-06-26T18:42:51.000Z,5.18
2019-06-26T18:45:51.000Z,5.18
2019-06-26T18:48:51.000Z,5.18
2019-06-26T18:51:50.000Z,5.18
2019-06-26T18:54:50.000Z,5.18
2019-06-26T18:57:51.000Z,5.18
2019-06-26T19:00:51.000Z,5.33
2019-06-26T19:03:51.000Z,5.33
2019-06-26T19:06:50.000Z,5.33
2019-06-26T19:09:51.000Z,5.33
2019-06-26T19:12:51.000Z,5.33
2019-06-26T19:15:51.000Z,5.33
2019-06-26T19:18:51.000Z,5.33
2019-06-26T19:21:51.000Z,5.33
2019-06-26T19:24:51.000Z,5.33
2019-06-26T19:27:51.000Z,5.33
2019-06-26T19:30:52.000Z,5.33
2019-06-26T19:33:51.000Z,5.33
2019-06-26T19:36:51.000Z,5.33
2019-06-26T19:39:51.000Z,5.33
2019-06-26T19:42:51.000Z,5.33
2019-06-26T19:45:51.000Z,5.33
2019-06-26T19:48:51.000Z,5.33
2019-06-26T19:51:51.000Z,5.33
2019-06-26T19:54:51.000Z,5.33
2019-06-26T19:57:51.000Z,5.33
2019-06-26T20:00:52.000Z,5.52
2019-06-26T20:03:51.000Z,5.52
2019-06-26T20:06:52.000Z,5.52
2019-06-26T20:09:52.000Z,5.52
2019-06-26T20:12:52.000Z,5.52
